createdAt,value
2019-03-15T00:00:10.835Z,1001.21
2019-03-15T00:01:10.835Z,1001.14
2019-03-15T00:02:10.809Z,1001.17
2019-03-15T00:03:10.802Z,1001.22
2019-03-15T00:04:10.810Z,1001.21
2019-03-15T00:05:10.779Z,1001.21
2019-03-15T00:06:10.771Z,1001.25
2019-03-15T00:07:10.758Z,1001.26
2019-03-15T00:08:10.749Z,1001.27
2019-03-15T00:09:10.765Z,1001.26
2019-03-15T00:10:10.725Z,1001.32
2019-03-15T00:11:10.753Z,1001.33
2019-03-15T00:12:10.704Z,1001.34
2019-03-15T00:13:10.693Z,1001.36
2019-03-15T00:14:19.699Z,1001.27
2019-03-15T00:15:10.670Z,1001.33
2019-03-15T00:16:10.660Z,1001.25
2019-03-15T00:17:10.647Z,1001.34
2019-03-15T00:18:10.636Z,1001.28
2019-03-15T00:19:10.626Z,1001.32
2019-03-15T00:20:10.647Z,1001.32
2019-03-15T00:21:10.608Z,1001.34
2019-03-15T00:22:10.600Z,1001.36
2019-03-15T00:23:10.589Z,1001.38
2019-03-15T00:24:10.573Z,1001.43
2019-03-15T00:25:11.611Z,1001.47
2019-03-15T00:26:10.551Z,1001.43
2019-03-15T00:27:10.575Z,1001.44
2019-03-15T00:28:10.565Z,1001.45
2019-03-15T00:29:10.518Z,1001.43
2019-03-15T00:30:10.525Z,1001.46
2019-03-15T00:31:10.496Z,1001.44
2019-03-15T00:32:10.486Z,1001.32
2019-03-15T00:33:10.472Z,1001.39
2019-03-15T00:34:10.469Z,1001.36
2019-03-15T00:35:10.486Z,1001.33
2019-03-15T00:36:10.492Z,1001.37
2019-03-15T00:37:10.430Z,1001.30
2019-03-15T00:38:10.419Z,1001.24
2019-03-15T00:39:10.412Z,1001.28
2019-03-15T00:40:10.419Z,1001.34
2019-03-15T00:41:11.038Z,1001.35
2019-03-15T00:42:10.382Z,1001.31
2019-03-15T00:43:10.363Z,1001.34
2019-03-15T00:44:10.354Z,1001.19
2019-03-15T00:45:10.360Z,1001.21
2019-03-15T00:46:10.334Z,1001.36
2019-03-15T00:47:10.321Z,1001.37
2019-03-15T00:48:10.311Z,1001.43
2019-03-15T00:49:10.302Z,1001.46
2019-03-15T00:50:10.317Z,1001.40
2019-03-15T00:51:10.279Z,1001.45
2019-03-15T00:52:10.267Z,1001.28
2019-03-15T00:53:10.255Z,1001.43
2019-03-15T00:54:10.243Z,1001.39
2019-03-15T00:55:10.252Z,1001.31
2019-03-15T00:56:10.232Z,1001.37
2019-03-15T00:57:10.248Z,1001.40
2019-03-15T00:58:10.221Z,1001.31
2019-03-15T00:59:10.192Z,1001.36
2019-03-15T01:00:10.221Z,1001.34
2019-03-15T01:01:10.229Z,1001.27
2019-03-15T01:02:11.023Z,1001.29
2019-03-15T01:03:10.193Z,1001.39
2019-03-15T01:04:10.134Z,1001.35
2019-03-15T01:05:10.173Z,1001.38
2019-03-15T01:06:10.188Z,1001.29
2019-03-15T01:07:10.115Z,1001.31
2019-03-15T01:08:10.121Z,1001.41
2019-03-15T01:09:10.096Z,1001.30
2019-03-15T01:10:10.077Z,1001.34
2019-03-15T01:11:10.077Z,1001.34
2019-03-15T01:12:10.049Z,1001.35
2019-03-15T01:13:10.054Z,1001.30
2019-03-15T01:14:10.031Z,1001.29
2019-03-15T01:15:10.018Z,1001.35
2019-03-15T01:16:10.024Z,1001.34
2019-03-15T01:17:10.116Z,1001.29
2019-03-15T01:18:09.983Z,1001.32
2019-03-15T01:19:10.643Z,1001.39
2019-03-15T01:20:09.964Z,1001.39
2019-03-15T01:21:09.967Z,1001.29
2019-03-15T01:22:09.943Z,1001.26
2019-03-15T01:23:18.485Z,1001.22
2019-03-15T01:24:17.462Z,1001.23
2019-03-15T01:25:17.443Z,1001.22
2019-03-15T01:26:18.758Z,1001.22
2019-03-15T01:27:09.886Z,1001.31
2019-03-15T01:28:09.875Z,1001.25
2019-03-15T01:29:09.870Z,1001.27
2019-03-15T01:30:09.885Z,1001.28
2019-03-15T01:31:09.849Z,1001.18
2019-03-15T01:32:10.040Z,1001.31
2019-03-15T01:33:09.835Z,1001.22
2019-03-15T01:34:09.811Z,1001.22
2019-03-15T01:35:09.809Z,1001.27
2019-03-15T01:36:09.798Z,1001.25
2019-03-15T01:37:09.811Z,1001.22
2019-03-15T01:38:09.766Z,1001.19
2019-03-15T01:39:10.170Z,1001.17
2019-03-15T01:40:09.785Z,1001.21
2019-03-15T01:41:09.785Z,1001.24
2019-03-15T01:42:09.748Z,1001.31
2019-03-15T01:43:09.711Z,1001.23
2019-03-15T01:44:09.707Z,1001.21
2019-03-15T01:45:09.689Z,1001.20
2019-03-15T01:46:09.680Z,1001.14
2019-03-15T01:47:09.711Z,1001.14
2019-03-15T01:48:09.657Z,1001.17
2019-03-15T01:49:09.646Z,1001.19
2019-03-15T01:50:17.173Z,1001.16
2019-03-15T01:51:09.625Z,1001.16
2019-03-15T01:52:09.618Z,1001.19
2019-03-15T01:53:09.623Z,1001.18
2019-03-15T01:54:09.596Z,1001.13
2019-03-15T01:55:09.593Z,1001.16
2019-03-15T01:56:09.598Z,1001.18
2019-03-15T01:57:09.566Z,1001.23
2019-03-15T01:58:09.568Z,1001.20
2019-03-15T01:59:09.535Z,1001.21
2019-03-15T02:00:09.536Z,1001.15
2019-03-15T02:01:09.537Z,1001.10
2019-03-15T02:02:09.507Z,1001.07
2019-03-15T02:03:09.516Z,1001.04
2019-03-15T02:04:09.488Z,1001.07
2019-03-15T02:05:09.484Z,1001.09
2019-03-15T02:06:09.465Z,1001.00
2019-03-15T02:07:09.455Z,1001.02
2019-03-15T02:08:09.466Z,1001.08
2019-03-15T02:09:09.565Z,1001.05
2019-03-15T02:10:09.419Z,1001.03
2019-03-15T02:11:09.417Z,1001.01
2019-03-15T02:12:09.404Z,1001.10
2019-03-15T02:13:09.422Z,1001.08
2019-03-15T02:14:09.374Z,1001.01
2019-03-15T02:15:09.363Z,1001.04
2019-03-15T02:16:09.355Z,1001.05
2019-03-15T02:17:09.343Z,1001.11
2019-03-15T02:18:09.352Z,1001.04
2019-03-15T02:19:10.305Z,1001.06
2019-03-15T02:20:09.314Z,1001.07
2019-03-15T02:21:09.307Z,1001.10
2019-03-15T02:22:09.299Z,1001.13
2019-03-15T02:23:09.299Z,1001.04
2019-03-15T02:24:09.266Z,1001.16
2019-03-15T02:25:09.258Z,1001.13
2019-03-15T02:26:09.246Z,1001.17
2019-03-15T02:27:09.234Z,1001.17
2019-03-15T02:28:09.247Z,1001.18
2019-03-15T02:29:09.210Z,1001.17
2019-03-15T02:30:09.307Z,1001.25
2019-03-15T02:31:09.195Z,1001.13
2019-03-15T02:32:09.187Z,1001.13
2019-03-15T02:33:09.203Z,1001.08
2019-03-15T02:34:09.172Z,1001.03
2019-03-15T02:35:09.148Z,1001.06
2019-03-15T02:36:09.157Z,1001.04
2019-03-15T02:37:09.146Z,1001.03
2019-03-15T02:38:09.138Z,1000.99
2019-03-15T02:39:09.106Z,1001.00
2019-03-15T02:40:09.098Z,1001.01
2019-03-15T02:41:09.094Z,1001.02
2019-03-15T02:42:09.123Z,1000.91
2019-03-15T02:43:09.084Z,1000.99
2019-03-15T02:44:09.095Z,1000.91
2019-03-15T02:45:09.057Z,1000.97
2019-03-15T02:46:09.032Z,1000.96
2019-03-15T02:47:09.021Z,1000.97
2019-03-15T02:48:09.048Z,1001.00
2019-03-15T02:49:08.997Z,1001.01
2019-03-15T02:50:08.996Z,1001.03
2019-03-15T02:51:08.997Z,1001.02
2019-03-15T02:52:08.966Z,1001.01
2019-03-15T02:53:09.299Z,1001.06
2019-03-15T02:54:08.959Z,1001.07
2019-03-15T02:55:08.970Z,1001.01
2019-03-15T02:56:08.925Z,1000.96
2019-03-15T02:57:09.064Z,1001.00
2019-03-15T02:58:08.920Z,1001.01
2019-03-15T02:59:08.893Z,1000.98
2019-03-15T03:00:08.885Z,1000.99
2019-03-15T03:01:08.870Z,1001.02
2019-03-15T03:02:08.870Z,1000.91
2019-03-15T03:03:08.876Z,1000.94
2019-03-15T03:04:08.840Z,1000.95
2019-03-15T03:05:08.882Z,1000.95
2019-03-15T03:06:08.815Z,1000.98
2019-03-15T03:07:08.802Z,1000.99
2019-03-15T03:08:08.814Z,1001.01
2019-03-15T03:09:09.054Z,1001.00
2019-03-15T03:10:08.803Z,1001.01
2019-03-15T03:11:08.759Z,1001.04
2019-03-15T03:12:08.756Z,1001.06
2019-03-15T03:13:08.756Z,1001.12
2019-03-15T03:14:08.746Z,1001.08
2019-03-15T03:15:08.719Z,1001.07
2019-03-15T03:16:08.715Z,1001.05
2019-03-15T03:17:08.692Z,1001.06
2019-03-15T03:18:08.701Z,1001.09
2019-03-15T03:19:08.670Z,1001.12
2019-03-15T03:20:08.660Z,1001.08
2019-03-15T03:21:08.649Z,1001.03
2019-03-15T03:22:09.275Z,1000.99
2019-03-15T03:23:17.296Z,1001.02
2019-03-15T03:24:08.619Z,1001.08
2019-03-15T03:25:08.608Z,1001.11
2019-03-15T03:26:08.608Z,1001.01
2019-03-15T03:27:08.582Z,1001.01
2019-03-15T03:28:08.589Z,1000.99
2019-03-15T03:29:08.566Z,1001.04
2019-03-15T03:30:08.567Z,1001.05
2019-03-15T03:31:08.546Z,1001.07
2019-03-15T03:32:08.531Z,1001.02
2019-03-15T03:33:08.539Z,1001.01
2019-03-15T03:34:08.728Z,1000.96
2019-03-15T03:35:10.038Z,1000.91
2019-03-15T03:36:08.487Z,1000.95
2019-03-15T03:37:08.474Z,1000.89
2019-03-15T03:38:08.496Z,1000.87
2019-03-15T03:39:08.469Z,1000.91
2019-03-15T03:40:08.459Z,1000.88
2019-03-15T03:41:08.436Z,1000.84
2019-03-15T03:42:08.423Z,1000.86
2019-03-15T03:43:08.452Z,1000.82
2019-03-15T03:44:08.398Z,1000.81
2019-03-15T03:45:08.388Z,1000.77
2019-03-15T03:46:08.386Z,1000.71
2019-03-15T03:47:08.393Z,1000.69
2019-03-15T03:48:08.598Z,1000.67
2019-03-15T03:49:08.364Z,1000.63
2019-03-15T03:50:08.333Z,1000.58
2019-03-15T03:51:16.868Z,1000.60
2019-03-15T03:52:15.849Z,1000.65
2019-03-15T03:53:08.323Z,1000.60
2019-03-15T03:54:08.291Z,1000.66
2019-03-15T03:55:08.281Z,1000.67
2019-03-15T03:56:08.272Z,1000.68
2019-03-15T03:57:08.279Z,1000.71
2019-03-15T03:58:08.247Z,1000.73
2019-03-15T03:59:08.255Z,1000.71
2019-03-15T04:00:08.230Z,1000.71
2019-03-15T04:01:08.215Z,1000.70
2019-03-15T04:02:08.206Z,1000.72
2019-03-15T04:03:08.194Z,1000.68
2019-03-15T04:04:08.203Z,1000.67
2019-03-15T04:05:08.169Z,1000.58
2019-03-15T04:06:08.162Z,1000.56
2019-03-15T04:07:08.167Z,1000.60
2019-03-15T04:08:08.160Z,1000.56
2019-03-15T04:09:08.128Z,1000.55
2019-03-15T04:10:08.124Z,1000.50
2019-03-15T04:11:08.104Z,1000.46
2019-03-15T04:12:08.093Z,1000.44
2019-03-15T04:13:08.084Z,1000.44
2019-03-15T04:14:08.097Z,1000.44
2019-03-15T04:15:08.059Z,1000.42
2019-03-15T04:16:08.055Z,1000.44
2019-03-15T04:17:08.039Z,1000.44
2019-03-15T04:18:08.080Z,1000.45
2019-03-15T04:19:08.037Z,1000.42
2019-03-15T04:20:08.037Z,1000.43
2019-03-15T04:21:08.017Z,1000.44
2019-03-15T04:22:07.986Z,1000.44
2019-03-15T04:23:07.976Z,1000.38
2019-03-15T04:24:07.979Z,1000.42
2019-03-15T04:25:07.954Z,1000.41
2019-03-15T04:26:07.945Z,1000.47
2019-03-15T04:27:07.932Z,1000.47
2019-03-15T04:28:07.931Z,1000.41
2019-03-15T04:29:07.928Z,1000.36
2019-03-15T04:30:09.034Z,1000.40
2019-03-15T04:31:07.887Z,1000.47
2019-03-15T04:32:07.882Z,1000.44
2019-03-15T04:33:07.873Z,1000.47
2019-03-15T04:34:07.883Z,1000.47
2019-03-15T04:35:07.845Z,1000.46
2019-03-15T04:36:07.840Z,1000.50
2019-03-15T04:37:09.221Z,1000.45
2019-03-15T04:38:07.813Z,1000.45
2019-03-15T04:39:07.825Z,1000.38
2019-03-15T04:40:07.798Z,1000.42
2019-03-15T04:41:07.779Z,1000.45
2019-03-15T04:42:07.767Z,1000.47
2019-03-15T04:43:07.755Z,1000.45
2019-03-15T04:44:07.762Z,1000.48
2019-03-15T04:45:07.736Z,1000.47
2019-03-15T04:46:07.727Z,1000.45
2019-03-15T04:47:07.714Z,1000.43
2019-03-15T04:48:07.706Z,1000.44
2019-03-15T04:49:07.728Z,1000.46
2019-03-15T04:50:07.683Z,1000.45
2019-03-15T04:51:07.668Z,1000.48
2019-03-15T04:52:07.661Z,1000.50
2019-03-15T04:53:07.645Z,1000.52
2019-03-15T04:54:07.654Z,1000.47
2019-03-15T04:55:07.639Z,1000.44
2019-03-15T04:56:15.149Z,1000.45
2019-03-15T04:57:07.603Z,1000.41
2019-03-15T04:58:07.591Z,1000.44
2019-03-15T04:59:07.595Z,1000.44
2019-03-15T05:00:07.570Z,1000.44
2019-03-15T05:01:07.563Z,1000.46
2019-03-15T05:02:07.551Z,1000.47
2019-03-15T05:03:07.561Z,1000.43
2019-03-15T05:04:07.545Z,1000.45
2019-03-15T05:05:07.558Z,1000.47
2019-03-15T05:06:07.515Z,1000.44
2019-03-15T05:07:07.495Z,1000.41
2019-03-15T05:08:07.487Z,1000.38
2019-03-15T05:09:07.498Z,1000.40
2019-03-15T05:10:07.460Z,1000.35
2019-03-15T05:11:07.523Z,1000.34
2019-03-15T05:12:07.441Z,1000.35
2019-03-15T05:13:07.441Z,1000.34
2019-03-15T05:14:07.443Z,1000.31
2019-03-15T05:15:07.405Z,1000.30
2019-03-15T05:16:07.397Z,1000.24
2019-03-15T05:17:07.385Z,1000.28
2019-03-15T05:18:07.378Z,1000.32
2019-03-15T05:19:07.389Z,1000.32
2019-03-15T05:20:14.899Z,1000.29
2019-03-15T05:21:14.907Z,1000.27
2019-03-15T05:22:07.331Z,1000.30
2019-03-15T05:23:07.320Z,1000.24
2019-03-15T05:24:07.324Z,1000.23
2019-03-15T05:25:07.316Z,1000.22
2019-03-15T05:26:07.290Z,1000.22
2019-03-15T05:27:07.275Z,1000.19
2019-03-15T05:28:07.264Z,1000.17
2019-03-15T05:29:07.279Z,1000.21
2019-03-15T05:30:07.248Z,1000.17
2019-03-15T05:31:07.237Z,1000.19
2019-03-15T05:32:07.224Z,1000.19
2019-03-15T05:33:07.211Z,1000.16
2019-03-15T05:34:07.225Z,1000.19
2019-03-15T05:35:07.195Z,1000.16
2019-03-15T05:36:07.182Z,1000.13
2019-03-15T05:37:07.170Z,1000.11
2019-03-15T05:38:07.157Z,1000.13
2019-03-15T05:39:07.183Z,1000.14
2019-03-15T05:40:07.133Z,1000.11
2019-03-15T05:41:07.131Z,1000.09
2019-03-15T05:42:07.115Z,1000.05
2019-03-15T05:43:07.108Z,1000.05
2019-03-15T05:44:07.094Z,1000.04
2019-03-15T05:45:07.104Z,999.95
2019-03-15T05:46:07.069Z,1000.00
2019-03-15T05:47:07.061Z,1000.00
2019-03-15T05:48:07.057Z,999.92
2019-03-15T05:49:07.122Z,1000.02
2019-03-15T05:50:07.044Z,999.93
2019-03-15T05:51:07.031Z,999.90
2019-03-15T05:52:07.006Z,999.89
2019-03-15T05:53:06.993Z,999.91
2019-03-15T05:54:07.011Z,999.87
2019-03-15T05:55:06.977Z,999.91
2019-03-15T05:56:07.046Z,999.83
2019-03-15T05:57:06.949Z,999.83
2019-03-15T05:58:07.090Z,999.91
2019-03-15T05:59:06.951Z,999.89
2019-03-15T06:00:06.925Z,999.88
2019-03-15T06:01:06.922Z,999.91
2019-03-15T06:02:06.899Z,999.85
2019-03-15T06:03:06.882Z,999.89
2019-03-15T06:04:06.892Z,999.91
2019-03-15T06:05:08.915Z,999.89
2019-03-15T06:06:06.850Z,999.85
2019-03-15T06:07:06.840Z,999.90
2019-03-15T06:08:06.837Z,999.92
2019-03-15T06:09:06.848Z,999.89
2019-03-15T06:10:06.811Z,999.91
2019-03-15T06:11:06.801Z,999.92
2019-03-15T06:12:06.790Z,999.90
2019-03-15T06:13:06.775Z,999.84
2019-03-15T06:14:06.786Z,999.83
2019-03-15T06:15:06.754Z,999.76
2019-03-15T06:16:06.741Z,999.78
2019-03-15T06:17:06.732Z,999.77
2019-03-15T06:18:07.067Z,999.76
2019-03-15T06:19:06.706Z,999.73
2019-03-15T06:20:06.720Z,999.82
2019-03-15T06:21:06.687Z,999.73
2019-03-15T06:22:06.675Z,999.67
2019-03-15T06:23:06.665Z,999.63
2019-03-15T06:24:06.673Z,999.64
2019-03-15T06:25:14.182Z,999.58
2019-03-15T06:26:06.632Z,999.55
2019-03-15T06:27:14.167Z,999.54
2019-03-15T06:28:06.614Z,999.50
2019-03-15T06:29:06.623Z,999.44
2019-03-15T06:30:06.586Z,999.42
2019-03-15T06:31:06.585Z,999.45
2019-03-15T06:32:06.671Z,999.46
2019-03-15T06:33:06.558Z,999.43
2019-03-15T06:34:06.574Z,999.50
2019-03-15T06:35:06.533Z,999.48
2019-03-15T06:36:06.533Z,999.52
2019-03-15T06:37:06.519Z,999.44
2019-03-15T06:38:06.506Z,999.45
2019-03-15T06:39:06.522Z,999.42
2019-03-15T06:40:06.501Z,999.44
2019-03-15T06:41:06.471Z,999.45
2019-03-15T06:42:06.471Z,999.45
2019-03-15T06:43:06.452Z,999.44
2019-03-15T06:44:06.439Z,999.44
2019-03-15T06:45:06.459Z,999.45
2019-03-15T06:46:06.414Z,999.40
2019-03-15T06:47:06.403Z,999.40
2019-03-15T06:48:06.398Z,999.35
2019-03-15T06:49:06.384Z,999.30
2019-03-15T06:50:06.393Z,999.28
2019-03-15T06:51:09.122Z,999.24
2019-03-15T06:52:06.352Z,999.26
2019-03-15T06:53:06.344Z,999.26
2019-03-15T06:54:11.464Z,999.25
2019-03-15T06:55:07.339Z,999.21
2019-03-15T06:56:06.350Z,999.18
2019-03-15T06:57:14.874Z,999.16
2019-03-15T06:58:13.837Z,999.13
2019-03-15T06:59:14.823Z,999.19
2019-03-15T07:00:06.268Z,999.20
2019-03-15T07:01:15.545Z,999.12
2019-03-15T07:02:06.240Z,999.13
2019-03-15T07:03:14.770Z,999.14
2019-03-15T07:04:06.219Z,999.12
2019-03-15T07:05:06.212Z,999.12
2019-03-15T07:06:06.221Z,999.12
2019-03-15T07:07:06.198Z,999.15
2019-03-15T07:08:06.181Z,999.09
2019-03-15T07:09:07.315Z,999.10
2019-03-15T07:10:06.172Z,999.07
2019-03-15T07:11:06.190Z,999.05
2019-03-15T07:12:09.723Z,999.05
2019-03-15T07:13:06.125Z,999.04
2019-03-15T07:14:06.108Z,999.01
2019-03-15T07:15:06.110Z,999.04
2019-03-15T07:16:06.140Z,999.01
2019-03-15T07:17:06.077Z,999.03
2019-03-15T07:18:06.065Z,999.03
2019-03-15T07:19:25.729Z,999.01
2019-03-15T07:20:13.587Z,999.00
2019-03-15T07:21:14.633Z,998.98
2019-03-15T07:22:13.571Z,998.95
2019-03-15T07:23:13.560Z,998.86
2019-03-15T07:24:24.543Z,998.87
2019-03-15T07:26:16.243Z,998.83
2019-03-15T07:27:23.743Z,998.85
2019-03-15T07:28:23.749Z,998.82
2019-03-15T07:29:23.721Z,998.79
2019-03-15T07:30:23.711Z,998.83
2019-03-15T07:31:16.166Z,998.82
2019-03-15T07:32:16.272Z,998.84
2019-03-15T07:33:16.147Z,998.82
2019-03-15T07:34:16.132Z,998.83
2019-03-15T07:35:16.126Z,998.75
2019-03-15T07:36:16.130Z,998.71
2019-03-15T07:37:16.133Z,998.69
2019-03-15T07:38:16.106Z,998.66
2019-03-15T07:39:16.094Z,998.65
2019-03-15T07:40:16.077Z,998.70
2019-03-15T07:41:16.065Z,998.67
2019-03-15T07:42:16.100Z,998.67
2019-03-15T07:43:16.074Z,998.68
2019-03-15T07:44:16.025Z,998.66
2019-03-15T07:45:16.021Z,998.61
2019-03-15T07:46:16.010Z,998.54
2019-03-15T07:47:16.030Z,998.54
2019-03-15T07:48:22.245Z,998.54
2019-03-15T07:49:16.977Z,998.55
2019-03-15T07:50:15.970Z,998.52
2019-03-15T07:51:15.945Z,998.52
2019-03-15T07:52:15.935Z,998.48
2019-03-15T07:53:15.970Z,998.50
2019-03-15T07:54:15.915Z,998.49
2019-03-15T07:55:15.906Z,998.50
2019-03-15T07:56:15.890Z,998.48
2019-03-15T07:57:15.881Z,998.44
2019-03-15T07:58:15.934Z,998.45
2019-03-15T07:59:15.866Z,998.49
2019-03-15T08:00:15.853Z,998.42
2019-03-15T08:01:15.840Z,998.39
2019-03-15T08:02:15.858Z,998.38
2019-03-15T08:03:15.836Z,998.39
2019-03-15T08:04:16.999Z,998.37
2019-03-15T08:05:15.801Z,998.34
2019-03-15T08:06:15.798Z,998.36
2019-03-15T08:07:19.945Z,998.38
2019-03-15T08:08:15.828Z,998.35
2019-03-15T08:09:15.761Z,998.37
2019-03-15T08:10:15.750Z,998.34
2019-03-15T08:11:15.788Z,998.37
2019-03-15T08:12:15.750Z,998.34
2019-03-15T08:13:15.771Z,998.29
2019-03-15T08:14:15.702Z,998.26
2019-03-15T08:15:15.712Z,998.32
2019-03-15T08:16:15.692Z,998.33
2019-03-15T08:17:15.670Z,998.33
2019-03-15T08:18:15.697Z,998.36
2019-03-15T08:19:15.666Z,998.35
2019-03-15T08:20:15.667Z,998.33
2019-03-15T08:21:15.634Z,998.26
2019-03-15T08:22:15.633Z,998.26
2019-03-15T08:23:15.596Z,998.29
2019-03-15T08:24:15.609Z,998.23
2019-03-15T08:25:15.600Z,998.27
2019-03-15T08:26:15.572Z,998.25
2019-03-15T08:27:16.234Z,998.22
2019-03-15T08:28:15.577Z,998.25
2019-03-15T08:29:24.625Z,998.23
2019-03-15T08:30:24.092Z,998.25
2019-03-15T08:31:15.518Z,998.28
2019-03-15T08:32:15.504Z,998.25
2019-03-15T08:33:15.506Z,998.22
2019-03-15T08:34:15.479Z,998.16
2019-03-15T08:35:15.485Z,998.23
2019-03-15T08:36:15.457Z,998.19
2019-03-15T08:37:15.444Z,998.17
2019-03-15T08:38:15.436Z,998.15
2019-03-15T08:39:15.426Z,998.18
2019-03-15T08:40:15.482Z,998.23
2019-03-15T08:41:15.405Z,998.26
2019-03-15T08:42:15.392Z,998.23
2019-03-15T08:43:15.385Z,998.27
2019-03-15T08:44:15.378Z,998.28
2019-03-15T08:45:15.366Z,998.22
2019-03-15T08:46:15.375Z,998.26
2019-03-15T08:47:15.379Z,998.25
2019-03-15T08:48:15.325Z,998.27
2019-03-15T08:49:15.316Z,998.23
2019-03-15T08:50:15.813Z,998.24
2019-03-15T08:51:15.300Z,998.23
2019-03-15T08:52:15.285Z,998.19
2019-03-15T08:53:15.274Z,998.19
2019-03-15T08:54:15.269Z,998.16
2019-03-15T08:55:15.252Z,998.17
2019-03-15T08:56:15.308Z,998.19
2019-03-15T08:57:15.233Z,998.13
2019-03-15T08:58:21.677Z,998.14
2019-03-15T08:59:16.217Z,998.15
2019-03-15T09:00:15.198Z,998.11
2019-03-15T09:01:15.204Z,998.14
2019-03-15T09:02:15.187Z,998.10
2019-03-15T09:03:27.292Z,998.16
2019-03-15T09:04:16.168Z,998.21
2019-03-15T09:05:15.186Z,998.19
2019-03-15T09:06:15.140Z,998.16
2019-03-15T09:07:15.124Z,998.20
2019-03-15T09:08:15.120Z,998.21
2019-03-15T09:09:15.103Z,998.20
2019-03-15T09:10:22.800Z,998.24
2019-03-15T09:11:16.099Z,998.17
2019-03-15T09:12:15.067Z,998.30
2019-03-15T09:13:15.077Z,998.28
2019-03-15T09:14:15.047Z,998.26
2019-03-15T09:15:15.042Z,998.29
2019-03-15T09:16:15.044Z,998.28
2019-03-15T09:17:15.016Z,998.29
2019-03-15T09:18:15.003Z,998.33
2019-03-15T09:19:14.997Z,998.30
2019-03-15T09:20:14.989Z,998.32
2019-03-15T09:21:15.016Z,998.33
2019-03-15T09:22:14.959Z,998.38
2019-03-15T09:23:14.965Z,998.28
2019-03-15T09:24:23.490Z,998.30
2019-03-15T09:25:19.818Z,998.26
2019-03-15T09:26:15.931Z,998.26
2019-03-15T09:27:14.906Z,998.34
2019-03-15T09:28:14.896Z,998.29
2019-03-15T09:29:14.882Z,998.21
2019-03-15T09:30:23.284Z,998.25
2019-03-15T09:31:15.893Z,998.22
2019-03-15T09:32:14.876Z,998.23
2019-03-15T09:33:14.837Z,998.34
2019-03-15T09:34:14.827Z,998.28
2019-03-15T09:35:14.822Z,998.23
2019-03-15T09:36:14.832Z,998.27
2019-03-15T09:37:14.814Z,998.20
2019-03-15T09:38:14.788Z,998.28
2019-03-15T09:39:14.833Z,998.21
2019-03-15T09:40:14.763Z,998.24
2019-03-15T09:41:14.753Z,998.28
2019-03-15T09:42:14.762Z,998.28
2019-03-15T09:43:14.732Z,998.30
2019-03-15T09:44:14.728Z,998.31
2019-03-15T09:45:14.712Z,998.37
2019-03-15T09:46:14.707Z,998.27
2019-03-15T09:47:14.730Z,998.27
2019-03-15T09:48:14.764Z,998.26
2019-03-15T09:49:14.664Z,998.25
2019-03-15T09:50:22.818Z,998.23
2019-03-15T09:51:15.646Z,998.27
2019-03-15T09:52:14.635Z,998.29
2019-03-15T09:53:14.654Z,998.15
2019-03-15T09:54:14.609Z,998.37
2019-03-15T09:55:14.598Z,998.27
2019-03-15T09:56:14.592Z,998.24
2019-03-15T09:57:14.583Z,998.19
2019-03-15T09:58:14.585Z,998.20
2019-03-15T09:59:14.557Z,998.12
2019-03-15T10:00:14.547Z,998.19
2019-03-15T10:01:14.848Z,998.15
2019-03-15T10:02:14.563Z,998.22
2019-03-15T10:03:22.124Z,998.23
2019-03-15T10:04:17.213Z,998.26
2019-03-15T10:05:14.500Z,998.19
2019-03-15T10:06:19.078Z,998.29
2019-03-15T10:07:15.575Z,998.26
2019-03-15T10:08:14.457Z,998.30
2019-03-15T10:09:14.456Z,998.35
2019-03-15T10:10:17.955Z,998.26
2019-03-15T10:11:14.428Z,998.26
2019-03-15T10:12:14.420Z,998.30
2019-03-15T10:13:14.421Z,998.27
2019-03-15T10:14:14.394Z,998.23
2019-03-15T10:15:14.381Z,998.32
2019-03-15T10:16:14.373Z,998.28
2019-03-15T10:17:14.361Z,998.25
2019-03-15T10:18:14.365Z,998.36
2019-03-15T10:19:14.337Z,998.25
2019-03-15T10:20:14.334Z,998.24
2019-03-15T10:21:14.316Z,998.34
2019-03-15T10:22:14.305Z,998.35
2019-03-15T10:23:14.317Z,998.27
2019-03-15T10:24:15.711Z,998.31
2019-03-15T10:25:14.287Z,998.21
2019-03-15T10:26:15.109Z,998.30
2019-03-15T10:27:14.249Z,998.45
2019-03-15T10:28:14.266Z,998.33
2019-03-15T10:29:16.203Z,998.29
2019-03-15T10:30:14.214Z,998.41
2019-03-15T10:31:14.236Z,998.40
2019-03-15T10:32:14.197Z,998.35
2019-03-15T10:33:14.204Z,998.40
2019-03-15T10:34:14.171Z,998.40
2019-03-15T10:35:14.161Z,998.45
2019-03-15T10:36:14.167Z,998.46
2019-03-15T10:37:14.139Z,998.48
2019-03-15T10:38:16.663Z,998.42
2019-03-15T10:39:14.140Z,998.51
2019-03-15T10:40:14.108Z,998.52
2019-03-15T10:41:14.101Z,998.46
2019-03-15T10:42:14.084Z,998.51
2019-03-15T10:43:14.079Z,998.47
2019-03-15T10:44:14.090Z,998.44
2019-03-15T10:45:14.052Z,998.55
2019-03-15T10:46:14.040Z,998.61
2019-03-15T10:47:14.037Z,998.54
2019-03-15T10:48:24.627Z,998.66
2019-03-15T10:49:15.024Z,998.60
2019-03-15T10:50:13.999Z,998.54
2019-03-15T10:51:13.992Z,998.69
2019-03-15T10:52:13.975Z,998.63
2019-03-15T10:53:13.970Z,998.86
2019-03-15T10:54:13.973Z,998.50
2019-03-15T10:55:13.948Z,998.69
2019-03-15T10:56:13.945Z,998.66
2019-03-15T10:57:13.923Z,998.65
2019-03-15T10:58:13.937Z,998.66
2019-03-15T10:59:13.933Z,998.71
2019-03-15T11:00:13.908Z,998.67
2019-03-15T11:01:13.876Z,998.66
2019-03-15T11:02:13.878Z,998.70
2019-03-15T11:03:13.854Z,998.66
2019-03-15T11:04:13.842Z,998.77
2019-03-15T11:05:13.856Z,998.78
2019-03-15T11:06:13.826Z,998.76
2019-03-15T11:07:13.813Z,998.85
2019-03-15T11:08:13.803Z,998.79
2019-03-15T11:09:13.792Z,998.83
2019-03-15T11:10:13.802Z,998.78
2019-03-15T11:11:13.779Z,998.78
2019-03-15T11:12:13.764Z,998.81
2019-03-15T11:13:13.749Z,998.73
2019-03-15T11:14:13.746Z,998.78
2019-03-15T11:15:13.747Z,998.82
2019-03-15T11:16:13.723Z,998.85
2019-03-15T11:17:13.705Z,998.90
2019-03-15T11:18:13.695Z,998.87
2019-03-15T11:19:15.636Z,998.95
2019-03-15T11:20:13.692Z,998.95
2019-03-15T11:21:13.664Z,998.97
2019-03-15T11:22:13.651Z,998.95
2019-03-15T11:23:13.638Z,998.94
2019-03-15T11:24:13.629Z,998.86
2019-03-15T11:25:13.635Z,998.92
2019-03-15T11:26:14.239Z,998.90
2019-03-15T11:27:13.597Z,999.02
2019-03-15T11:28:13.588Z,999.04
2019-03-15T11:29:13.572Z,999.05
2019-03-15T11:30:13.587Z,999.14
2019-03-15T11:31:13.547Z,999.04
2019-03-15T11:32:13.535Z,999.05
2019-03-15T11:33:13.525Z,998.99
2019-03-15T11:34:13.530Z,998.91
2019-03-15T11:35:13.507Z,998.98
2019-03-15T11:36:13.511Z,999.02
2019-03-15T11:37:13.482Z,999.04
2019-03-15T11:38:13.473Z,999.00
2019-03-15T11:39:13.459Z,999.10
2019-03-15T11:40:14.225Z,999.10
2019-03-15T11:41:13.464Z,999.14
2019-03-15T11:42:15.022Z,999.16
2019-03-15T11:43:13.416Z,999.11
2019-03-15T11:44:13.437Z,999.07
2019-03-15T11:45:13.396Z,999.16
2019-03-15T11:46:16.389Z,999.16
2019-03-15T11:47:13.434Z,999.12
2019-03-15T11:48:13.374Z,999.20
2019-03-15T11:49:13.388Z,999.13
2019-03-15T11:50:13.342Z,999.19
2019-03-15T11:51:13.335Z,999.14
2019-03-15T11:52:13.336Z,999.20
2019-03-15T11:53:13.315Z,999.18
2019-03-15T11:54:13.294Z,999.24
2019-03-15T11:55:13.290Z,999.21
2019-03-15T11:56:26.176Z,999.14
2019-03-15T11:57:14.287Z,999.02
2019-03-15T11:58:13.251Z,999.16
2019-03-15T11:59:13.264Z,999.15
2019-03-15T12:00:13.234Z,999.04
2019-03-15T12:01:13.218Z,999.07
2019-03-15T12:02:13.210Z,999.07
2019-03-15T12:03:13.216Z,999.19
2019-03-15T12:04:13.184Z,999.14
2019-03-15T12:05:13.172Z,999.17
2019-03-15T12:06:13.163Z,999.23
2019-03-15T12:07:13.163Z,999.19
2019-03-15T12:08:13.268Z,999.32
2019-03-15T12:09:13.132Z,999.24
2019-03-15T12:10:13.126Z,999.29
2019-03-15T12:11:13.116Z,999.24
2019-03-15T12:12:13.096Z,999.16
2019-03-15T12:13:13.100Z,999.21
2019-03-15T12:14:13.077Z,999.16
2019-03-15T12:15:13.065Z,999.28
2019-03-15T12:16:13.057Z,999.23
2019-03-15T12:17:13.042Z,999.15
2019-03-15T12:18:13.052Z,999.18